createdAt,value
2018-05-24T00:02:04.745Z,97215
2018-05-24T00:04:40.508Z,97211
2018-05-24T00:07:10.811Z,97214
2018-05-24T00:09:43.769Z,97213
2018-05-24T00:12:27.267Z,97216
2018-05-24T00:14:59.039Z,97215
2018-05-24T00:17:28.283Z,97213
2018-05-24T00:20:06.618Z,97207
2018-05-24T00:25:37.522Z,97206
2018-05-24T00:28:07.783Z,97207
2018-05-24T00:30:37.767Z,97214
2018-05-24T00:33:19.301Z,97211
2018-05-24T00:35:52.128Z,97206
2018-05-24T00:38:25.459Z,97201
2018-05-24T00:40:55.927Z,97196
2018-05-24T00:43:28.985Z,97199
2018-05-24T00:46:15.108Z,97191
2018-05-24T00:48:51.207Z,97189
2018-05-24T00:51:19.495Z,97190
2018-05-24T00:53:59.844Z,97189
2018-05-24T00:56:28.211Z,97191
2018-05-24T00:58:56.540Z,97183
2018-05-24T01:01:26.632Z,97184
2018-05-24T01:03:56.001Z,97185
2018-05-24T01:06:24.296Z,97184
2018-05-24T01:08:52.618Z,97187
2018-05-24T01:11:22.884Z,97194
2018-05-24T01:13:51.171Z,97195
2018-05-24T01:16:19.460Z,97202
2018-05-24T01:18:55.817Z,97209
2018-05-24T01:21:25.143Z,97201
2018-05-24T01:23:59.335Z,97197
2018-05-24T01:26:33.193Z,97204
2018-05-24T01:29:05.901Z,97196
2018-05-24T01:31:34.240Z,97193
2018-05-24T01:34:06.391Z,97198
2018-05-24T01:36:57.072Z,97190
2018-05-24T01:39:30.957Z,97186
2018-05-24T01:42:13.132Z,97181
2018-05-24T01:45:03.439Z,97181
2018-05-24T01:47:37.071Z,97184
2018-05-24T01:50:07.065Z,97176
2018-05-24T01:52:37.311Z,97175
2018-05-24T01:55:10.846Z,97172
2018-05-24T01:57:44.608Z,97169
2018-05-24T02:00:14.647Z,97173
2018-05-24T02:02:48.896Z,97168
2018-05-24T02:05:32.428Z,97164
2018-05-24T02:08:01.683Z,97160
2018-05-24T02:10:31.905Z,97161
2018-05-24T02:13:01.219Z,97172
2018-05-24T02:15:36.921Z,97174
2018-05-24T02:18:17.711Z,97180
2018-05-24T02:20:54.483Z,97184
2018-05-24T02:23:35.205Z,97179
2018-05-24T02:26:04.239Z,97181
2018-05-24T02:28:38.388Z,97181
2018-05-24T02:31:16.808Z,97177
2018-05-24T02:33:51.036Z,97175
2018-05-24T02:36:23.670Z,97178
2018-05-24T02:38:55.366Z,97174
2018-05-24T02:41:33.761Z,97169
2018-05-24T02:44:03.126Z,97169
2018-05-24T02:46:38.092Z,97166
2018-05-24T02:49:06.454Z,97173
2018-05-24T02:51:34.743Z,97170
2018-05-24T02:54:03.043Z,97172
2018-05-24T02:56:31.315Z,97164
2018-05-24T02:59:00.598Z,97161
2018-05-24T03:01:28.868Z,97157
2018-05-24T03:03:57.250Z,97155
2018-05-24T03:06:29.306Z,97142
2018-05-24T03:09:08.126Z,97139
2018-05-24T03:11:43.848Z,97137
2018-05-24T03:14:23.911Z,97142
2018-05-24T03:16:57.020Z,97140
2018-05-24T03:19:25.487Z,97141
2018-05-24T03:21:53.780Z,97149
2018-05-24T03:24:24.008Z,97153
2018-05-24T03:26:52.339Z,97161
2018-05-24T03:29:25.266Z,97165
2018-05-24T03:31:56.739Z,97166
2018-05-24T03:34:28.278Z,97165
2018-05-24T03:36:57.600Z,97173
2018-05-24T03:39:34.220Z,97173
2018-05-24T03:42:11.097Z,97171
2018-05-24T03:44:41.411Z,97173
2018-05-24T03:47:21.393Z,97179
2018-05-24T03:49:57.536Z,97185
2018-05-24T03:52:26.887Z,97185
2018-05-24T03:55:12.794Z,97191
2018-05-24T03:57:53.923Z,97191
2018-05-24T04:00:42.078Z,97187
2018-05-24T04:03:29.089Z,97195
2018-05-24T04:05:58.285Z,97204
2018-05-24T04:08:31.939Z,97199
2018-05-24T04:11:05.680Z,97201
2018-05-24T04:13:35.936Z,97208
2018-05-24T04:16:09.232Z,97205
2018-05-24T04:18:47.616Z,97211
2018-05-24T04:21:19.772Z,97215
2018-05-24T04:23:50.036Z,97216
2018-05-24T04:26:21.570Z,97219
2018-05-24T04:28:50.871Z,97220
2018-05-24T04:31:21.221Z,97224
2018-05-24T04:33:56.482Z,97222
2018-05-24T04:36:50.825Z,97219
2018-05-24T04:39:20.148Z,97228
2018-05-24T04:41:49.430Z,97228
2018-05-24T04:44:29.469Z,97229
2018-05-24T04:46:58.800Z,97229
2018-05-24T04:49:33.257Z,97234
2018-05-24T04:52:16.390Z,97236
2018-05-24T04:54:51.233Z,97238
2018-05-24T05:00:34.242Z,97235
2018-05-24T05:03:02.556Z,97240
2018-05-24T05:05:42.219Z,97243
2018-05-24T05:08:12.532Z,97239
2018-05-24T05:10:46.756Z,97246
2018-05-24T05:13:27.637Z,97245
2018-05-24T05:16:00.117Z,97244
2018-05-24T05:18:34.013Z,97244
2018-05-24T05:21:04.267Z,97244
2018-05-24T05:23:44.371Z,97240
2018-05-24T05:26:16.635Z,97243
2018-05-24T05:28:57.283Z,97236
2018-05-24T05:31:26.529Z,97247
2018-05-24T05:34:00.332Z,97243
2018-05-24T05:36:41.340Z,97245
2018-05-24T05:39:22.444Z,97243
2018-05-24T05:41:51.699Z,97249
2018-05-24T05:44:38.831Z,97249
2018-05-24T05:47:18.761Z,97256
2018-05-24T05:49:48.032Z,97251
2018-05-24T05:52:26.347Z,97251
2018-05-24T05:54:57.998Z,97245
2018-05-24T05:57:37.726Z,97248
2018-05-24T06:00:15.511Z,97244
2018-05-24T06:03:03.688Z,97244
2018-05-24T06:05:37.971Z,97245
2018-05-24T06:08:06.315Z,97242
2018-05-24T06:10:34.556Z,97245
2018-05-24T06:13:24.531Z,97245
2018-05-24T06:16:24.718Z,97248
2018-05-24T06:18:53.811Z,97247
2018-05-24T06:21:23.022Z,97248
2018-05-24T06:24:09.711Z,97251
2018-05-24T06:26:42.969Z,97251
2018-05-24T06:29:15.823Z,97245
2018-05-24T06:31:50.264Z,97248
2018-05-24T06:34:23.408Z,97249
2018-05-24T06:36:56.292Z,97249
2018-05-24T06:39:26.634Z,97256
2018-05-24T06:41:56.908Z,97263
2018-05-24T06:44:25.455Z,97264
2018-05-24T06:46:55.844Z,97267
2018-05-24T06:49:24.900Z,97269
2018-05-24T06:51:58.229Z,97266
2018-05-24T06:54:42.282Z,97269
2018-05-24T06:57:13.524Z,97272
2018-05-24T06:59:51.084Z,97280
2018-05-24T07:02:23.140Z,97275
2018-05-24T07:04:51.535Z,97279
2018-05-24T07:07:19.810Z,97283
2018-05-24T07:09:48.144Z,97285
2018-05-24T07:12:16.467Z,97279
2018-05-24T07:14:44.783Z,97289
2018-05-24T07:17:13.952Z,97289
2018-05-24T07:19:43.044Z,97287
2018-05-24T07:22:14.828Z,97287
2018-05-24T07:24:43.982Z,97289
2018-05-24T07:27:28.897Z,97287
2018-05-24T07:30:05.905Z,97290
2018-05-24T07:32:38.110Z,97292
2018-05-24T07:35:11.913Z,97283
2018-05-24T07:37:40.257Z,97283
2018-05-24T07:40:10.746Z,97280
2018-05-24T07:42:50.980Z,97282
2018-05-24T07:45:20.255Z,97285
2018-05-24T07:47:52.628Z,97286
2018-05-24T07:50:33.932Z,97284
2018-05-24T07:53:02.349Z,97283
2018-05-24T07:55:39.758Z,97287
2018-05-24T07:58:15.970Z,97280
2018-05-24T08:00:55.685Z,97275
2018-05-24T08:03:31.544Z,97272
2018-05-24T08:06:20.789Z,97269
2018-05-24T08:08:54.403Z,97282
2018-05-24T08:11:24.640Z,97279
2018-05-24T08:13:59.590Z,97272
2018-05-24T08:16:29.894Z,97278
2018-05-24T08:19:15.951Z,97273
2018-05-24T08:21:47.659Z,97276
2018-05-24T08:24:34.405Z,97279
2018-05-24T08:27:09.572Z,97276
2018-05-24T08:29:42.811Z,97279
2018-05-24T08:32:22.270Z,97278
2018-05-24T08:35:00.718Z,97272
2018-05-24T08:37:28.911Z,97269
2018-05-24T08:39:57.184Z,97267
2018-05-24T08:42:30.122Z,97267
2018-05-24T08:45:00.236Z,97272
2018-05-24T08:47:31.297Z,97278
2018-05-24T08:50:08.085Z,97276
2018-05-24T08:52:38.355Z,97270
2018-05-24T08:55:06.762Z,97273
2018-05-24T08:57:36.831Z,97274
2018-05-24T09:00:24.309Z,97273
2018-05-24T09:02:57.141Z,97279
2018-05-24T09:05:38.396Z,97278
2018-05-24T09:08:17.620Z,97278
2018-05-24T09:10:59.400Z,97275
2018-05-24T09:13:33.632Z,97275
2018-05-24T09:16:06.788Z,97273
2018-05-24T09:18:53.790Z,97271
2018-05-24T09:21:27.883Z,97270
2018-05-24T09:24:11.472Z,97263
2018-05-24T09:26:40.905Z,97266
2018-05-24T09:29:09.280Z,97260
2018-05-24T09:31:48.989Z,97253
2018-05-24T09:34:20.018Z,97252
2018-05-24T09:36:56.629Z,97252
2018-05-24T09:42:44.852Z,97249
2018-05-24T09:45:18.959Z,97253
2018-05-24T09:47:51.989Z,97250
2018-05-24T09:50:26.476Z,97255
2018-05-24T09:52:59.776Z,97249
2018-05-24T09:55:36.891Z,97243
2018-05-24T09:58:06.184Z,97241
2018-05-24T10:00:35.415Z,97233
2018-05-24T10:03:07.410Z,97242
2018-05-24T10:05:40.295Z,97238
2018-05-24T10:08:18.682Z,97237
2018-05-24T10:10:51.002Z,97237
2018-05-24T10:13:20.084Z,97236
2018-05-24T10:15:53.575Z,97224
2018-05-24T10:18:21.894Z,97228
2018-05-24T10:20:53.851Z,97226
2018-05-24T10:23:29.092Z,97226
2018-05-24T10:26:02.351Z,97219
2018-05-24T10:28:36.935Z,97211
2018-05-24T10:31:09.925Z,97202
2018-05-24T10:33:52.201Z,97199
2018-05-24T10:36:32.968Z,97200
2018-05-24T10:39:07.335Z,97200
2018-05-24T10:41:41.094Z,97191
2018-05-24T10:44:16.431Z,97193
2018-05-24T10:46:46.694Z,97187
2018-05-24T10:49:16.927Z,97192
2018-05-24T10:51:49.815Z,97182
2018-05-24T10:54:19.118Z,97175
2018-05-24T10:56:47.424Z,97166
2018-05-24T10:59:15.696Z,97169
2018-05-24T11:01:48.021Z,97171
2018-05-24T11:04:18.078Z,97165
2018-05-24T11:06:50.424Z,97162
2018-05-24T11:09:19.459Z,97156
2018-05-24T11:11:52.202Z,97163
2018-05-24T11:14:21.530Z,97152
2018-05-24T11:16:50.615Z,97155
2018-05-24T11:19:20.930Z,97152
2018-05-24T11:21:54.941Z,97150
2018-05-24T11:24:27.895Z,97146
2018-05-24T11:27:11.447Z,97142
2018-05-24T11:29:42.939Z,97140
2018-05-24T11:32:12.348Z,97132
2018-05-24T11:34:43.435Z,97134
2018-05-24T11:37:28.767Z,97128
2018-05-24T11:40:11.796Z,97118
2018-05-24T11:42:42.096Z,97122
2018-05-24T11:45:11.360Z,97113
2018-05-24T11:47:44.572Z,97121
2018-05-24T11:50:38.789Z,97119
2018-05-24T11:53:17.573Z,97120
2018-05-24T11:55:50.539Z,97105
2018-05-24T11:58:22.529Z,97103
2018-05-24T12:00:57.920Z,97105
2018-05-24T12:03:28.211Z,97099
2018-05-24T12:06:01.968Z,97102
2018-05-24T12:08:31.218Z,97105
2018-05-24T12:11:00.272Z,97101
2018-05-24T12:13:29.567Z,97097
2018-05-24T12:15:59.829Z,97096
2018-05-24T12:18:29.095Z,97093
2018-05-24T12:20:57.404Z,97088
2018-05-24T12:23:31.600Z,97082
2018-05-24T12:26:17.854Z,97078
2018-05-24T12:28:56.827Z,97081
2018-05-24T12:31:26.107Z,97065
2018-05-24T12:33:57.667Z,97075
2018-05-24T12:36:50.690Z,97069
2018-05-24T12:39:22.312Z,97075
2018-05-24T12:41:56.223Z,97068
2018-05-24T12:44:26.230Z,97065
2018-05-24T12:47:06.638Z,97065
2018-05-24T12:49:35.987Z,97067
2018-05-24T12:52:04.268Z,97062
2018-05-24T12:54:37.690Z,97045
2018-05-24T12:57:21.740Z,97052
2018-05-24T12:59:50.814Z,97044
2018-05-24T13:02:19.978Z,97047
2018-05-24T13:04:48.255Z,97053
2018-05-24T13:07:27.712Z,97054
2018-05-24T13:10:04.438Z,97044
2018-05-24T13:12:32.771Z,97044
2018-05-24T13:15:03.103Z,97035
2018-05-24T13:17:33.217Z,97048
2018-05-24T13:20:01.492Z,97043
2018-05-24T13:22:29.738Z,97038
2018-05-24T13:25:00.014Z,97040
2018-05-24T13:27:29.089Z,97023
2018-05-24T13:29:58.360Z,97034
2018-05-24T13:32:30.353Z,97028
2018-05-24T13:34:58.613Z,97022
2018-05-24T13:37:26.921Z,97024
2018-05-24T13:39:59.384Z,97027
2018-05-24T13:42:33.051Z,97032
2018-05-24T13:45:01.355Z,97024
2018-05-24T13:47:30.437Z,97020
2018-05-24T13:49:58.735Z,97016
2018-05-24T13:52:27.014Z,97014
2018-05-24T13:54:55.249Z,97014
2018-05-24T13:57:45.720Z,97013
2018-05-24T14:00:17.420Z,97006
2018-05-24T14:03:02.730Z,97000
2018-05-24T14:05:37.914Z,97002
2018-05-24T14:08:08.172Z,96999
2018-05-24T14:10:42.136Z,96999
2018-05-24T14:13:16.189Z,96995
2018-05-24T14:15:45.874Z,96995
2018-05-24T14:18:16.124Z,96995
2018-05-24T14:20:47.570Z,96992
2018-05-24T14:23:21.244Z,96995
2018-05-24T14:25:53.140Z,96986
2018-05-24T14:28:34.163Z,96987
2018-05-24T14:31:08.524Z,96985
2018-05-24T14:33:36.778Z,96981
2018-05-24T14:36:09.385Z,96983
2018-05-24T14:38:45.792Z,96984
2018-05-24T14:41:22.595Z,96987
2018-05-24T14:44:04.110Z,96980
2018-05-24T14:46:32.485Z,96984
2018-05-24T14:49:06.862Z,96974
2018-05-24T14:51:42.615Z,96971
2018-05-24T14:54:11.935Z,96971
2018-05-24T14:56:40.319Z,96971
2018-05-24T14:59:15.872Z,96970
2018-05-24T15:01:44.205Z,96969
2018-05-24T15:04:23.777Z,96966
2018-05-24T15:06:56.043Z,96961
2018-05-24T15:09:28.357Z,96972
2018-05-24T15:11:57.427Z,96964
2018-05-24T15:14:26.526Z,96961
2018-05-24T15:16:54.838Z,96964
2018-05-24T15:19:28.293Z,96961
2018-05-24T15:22:07.838Z,96965
2018-05-24T15:24:37.197Z,96961
2018-05-24T15:27:05.499Z,96969
2018-05-24T15:29:33.884Z,96966
2018-05-24T15:32:06.278Z,96966
2018-05-24T15:34:36.556Z,96970
2018-05-24T15:37:26.661Z,96963
2018-05-24T15:39:56.959Z,96966
2018-05-24T15:42:25.192Z,96964
2018-05-24T15:45:10.031Z,96964
2018-05-24T15:47:44.063Z,96967
2018-05-24T15:50:12.457Z,96968
2018-05-24T15:52:43.872Z,96965
2018-05-24T15:55:14.173Z,96964
2018-05-24T15:57:43.439Z,96958
2018-05-24T16:00:12.487Z,96958
2018-05-24T16:02:40.809Z,96962
2018-05-24T16:05:10.938Z,96958
2018-05-24T16:07:41.043Z,96953
2018-05-24T16:10:12.687Z,96956
2018-05-24T16:12:43.098Z,96946
2018-05-24T16:15:16.487Z,96947
2018-05-24T16:17:49.419Z,96953
2018-05-24T16:20:23.301Z,96948
2018-05-24T16:22:55.012Z,96942
2018-05-24T16:25:26.699Z,96944
2018-05-24T16:28:06.040Z,96948
2018-05-24T16:30:42.875Z,96945
2018-05-24T16:33:14.896Z,96950
2018-05-24T16:35:56.170Z,96949
2018-05-24T16:38:37.911Z,96954
2018-05-24T16:41:12.970Z,96953
2018-05-24T16:43:43.239Z,96954
2018-05-24T16:46:17.425Z,96954
2018-05-24T16:49:10.488Z,96956
2018-05-24T16:51:39.778Z,96953
2018-05-24T16:54:13.877Z,96958
2018-05-24T16:56:42.903Z,96955
2018-05-24T16:59:11.167Z,96955
2018-05-24T17:01:45.699Z,96952
2018-05-24T17:04:18.664Z,96952
2018-05-24T17:06:49.063Z,96956
2018-05-24T17:09:23.002Z,96953
2018-05-24T17:12:08.341Z,96952
2018-05-24T17:14:37.580Z,96953
2018-05-24T17:17:13.007Z,96959
2018-05-24T17:19:45.002Z,96965
2018-05-24T17:22:23.603Z,96970
2018-05-24T17:25:03.545Z,96967
2018-05-24T17:27:32.898Z,96974
2018-05-24T17:30:08.219Z,96970
2018-05-24T17:32:40.494Z,96974
2018-05-24T17:35:28.376Z,96971
2018-05-24T17:38:06.923Z,96973
2018-05-24T17:40:36.264Z,96968
2018-05-24T17:43:06.313Z,96974
2018-05-24T17:45:49.817Z,96977
2018-05-24T17:48:27.861Z,96980
2018-05-24T17:51:07.723Z,96974
2018-05-24T17:53:42.523Z,96978
2018-05-24T17:56:11.788Z,96985
2018-05-24T17:58:57.476Z,96980
2018-05-24T18:01:26.780Z,96987
2018-05-24T18:04:07.242Z,96985
2018-05-24T18:06:36.527Z,96988
2018-05-24T18:09:15.810Z,96988
2018-05-24T18:11:58.257Z,96993
2018-05-24T18:14:38.252Z,96996
2018-05-24T18:17:10.531Z,96994
2018-05-24T18:19:39.818Z,97001
2018-05-24T18:22:13.091Z,97004
2018-05-24T18:24:46.779Z,96999
2018-05-24T18:27:15.170Z,97004
2018-05-24T18:29:49.066Z,97011
2018-05-24T18:32:22.886Z,97015
2018-05-24T18:35:01.266Z,97016
2018-05-24T18:37:29.562Z,97023
2018-05-24T18:40:10.645Z,97027
2018-05-24T18:42:49.612Z,97037
2018-05-24T18:45:25.803Z,97034
2018-05-24T18:47:55.215Z,97038
2018-05-24T18:50:34.449Z,97054
2018-05-24T18:53:13.321Z,97061
2018-05-24T18:55:43.606Z,97065
2018-05-24T18:58:17.920Z,97062
2018-05-24T19:00:46.195Z,97065
2018-05-24T19:03:18.638Z,97066
2018-05-24T19:05:50.327Z,97064
2018-05-24T19:08:18.709Z,97063
2018-05-24T19:10:48.037Z,97065
2018-05-24T19:13:16.328Z,97072
2018-05-24T19:15:45.367Z,97073
2018-05-24T19:18:14.699Z,97077
2018-05-24T19:20:42.962Z,97074
2018-05-24T19:23:11.326Z,97082
2018-05-24T19:25:39.659Z,97082
2018-05-24T19:28:08.693Z,97087
2018-05-24T19:30:36.972Z,97096
2018-05-24T19:33:09.134Z,97092
2018-05-24T19:35:43.126Z,97099
2018-05-24T19:38:16.985Z,97112
2018-05-24T19:40:50.696Z,97112
2018-05-24T19:43:21.163Z,97115
2018-05-24T19:45:52.850Z,97120
2018-05-24T19:48:21.680Z,97129
2018-05-24T19:50:58.781Z,97126
2018-05-24T19:53:41.455Z,97131
2018-05-24T19:56:26.404Z,97140
2018-05-24T19:59:04.204Z,97146
2018-05-24T20:01:35.550Z,97150
2018-05-24T20:04:07.210Z,97147
2018-05-24T20:06:54.778Z,97155
2018-05-24T20:09:25.283Z,97157
2018-05-24T20:11:55.980Z,97153
2018-05-24T20:14:25.561Z,97153
2018-05-24T20:16:55.398Z,97161
2018-05-24T20:19:28.240Z,97163
2018-05-24T20:22:05.727Z,97170
2018-05-24T20:24:41.681Z,97170
2018-05-24T20:27:35.715Z,97174
2018-05-24T20:30:08.359Z,97170
2018-05-24T20:32:45.797Z,97176
2018-05-24T20:35:15.025Z,97172
2018-05-24T20:37:48.573Z,97169
2018-05-24T20:40:24.478Z,97173
2018-05-24T20:43:04.384Z,97171
2018-05-24T20:45:46.295Z,97172
2018-05-24T20:48:16.599Z,97178
2018-05-24T20:50:54.846Z,97183
2018-05-24T20:53:49.317Z,97178
2018-05-24T20:56:26.299Z,97174
2018-05-24T20:59:06.327Z,97176
2018-05-24T21:01:41.307Z,97171
2018-05-24T21:04:13.146Z,97171
2018-05-24T21:06:59.537Z,97169
2018-05-24T21:09:41.316Z,97172
2018-05-24T21:12:11.621Z,97167
2018-05-24T21:14:43.107Z,97167
2018-05-24T21:17:11.436Z,97165
2018-05-24T21:19:46.450Z,97167
2018-05-24T21:22:26.831Z,97171
2018-05-24T21:25:07.549Z,97169
2018-05-24T21:27:37.783Z,97167
2018-05-24T21:30:14.237Z,97169
2018-05-24T21:32:48.886Z,97170
2018-05-24T21:35:27.055Z,97172
2018-05-24T21:38:01.635Z,97165
2018-05-24T21:40:33.608Z,97165
2018-05-24T21:43:10.972Z,97165
2018-05-24T21:45:48.171Z,97168
2018-05-24T21:48:16.418Z,97166
2018-05-24T21:50:59.035Z,97165
2018-05-24T21:53:33.801Z,97168
2018-05-24T21:56:11.886Z,97170
2018-05-24T21:58:46.976Z,97173
2018-05-24T22:01:16.078Z,97173
2018-05-24T22:03:54.041Z,97178
2018-05-24T22:06:29.064Z,97178
2018-05-24T22:08:58.334Z,97171
2018-05-24T22:11:30.545Z,97173
2018-05-24T22:14:13.651Z,97183
2018-05-24T22:16:53.724Z,97183
2018-05-24T22:19:28.001Z,97188
2018-05-24T22:21:57.363Z,97191
2018-05-24T22:24:27.260Z,97194
2018-05-24T22:26:56.315Z,97197
2018-05-24T22:29:27.813Z,97199
2018-05-24T22:32:03.367Z,97202
2018-05-24T22:34:40.356Z,97207
2018-05-24T22:37:13.650Z,97207
2018-05-24T22:39:47.059Z,97209
2018-05-24T22:42:18.165Z,97207
2018-05-24T22:44:49.415Z,97209
2018-05-24T22:47:25.931Z,97209
2018-05-24T22:49:55.010Z,97208
2018-05-24T22:52:27.401Z,97209
2018-05-24T22:55:02.743Z,97212
2018-05-24T22:57:33.450Z,97213
2018-05-24T23:00:09.060Z,97209
2018-05-24T23:02:41.219Z,97211
2018-05-24T23:05:10.605Z,97212
2018-05-24T23:07:39.918Z,97212
2018-05-24T23:10:09.638Z,97212
2018-05-24T23:12:44.268Z,97212
2018-05-24T23:15:14.287Z,97214
2018-05-24T23:17:42.659Z,97220
2018-05-24T23:20:18.137Z,97219
2018-05-24T23:22:50.196Z,97220
2018-05-24T23:25:27.969Z,97224
2018-05-24T23:28:06.675Z,97229
2018-05-24T23:30:39.738Z,97229
2018-05-24T23:33:16.398Z,97225
2018-05-24T23:35:48.522Z,97234
2018-05-24T23:38:24.911Z,97233
2018-05-24T23:40:56.105Z,97232
2018-05-24T23:43:40.221Z,97232
2018-05-24T23:46:11.974Z,97228
2018-05-24T23:48:46.257Z,97229
2018-05-24T23:51:20.487Z,97224
2018-05-24T23:53:55.655Z,97233
2018-05-24T23:56:27.512Z,97228
2018-05-24T23:59:00.249Z,97237
